Port Burwell, Canada
Current Conditions -  °F | °C
As of 7:00 AM on Saturday 25 Oct 2014 (Local Time) from CYXU Reporting Station
Scattered Clouds Scattered Clouds  
Wind Chill: 45°   Ceiling: Unl
Heat Index: 48°   Visibility: 15mi
Dew Point: 46°   Wind: 8mph
Humidity: 93%   Direction: 210°SSW
Pressure: 29.84"   Gusts: NA
Location:  42.65°N, 80.82°W
Report Text: CYXU 251100Z 21007KT 15SM FEW035 SCT250 09/08 A2984 RMK SC1CI3 SLP106
Loading
Personal Weather Stations






























Interactive Weather Map
Tropical Storm Tracking
New forecast layout! Learn more

10-Day Weather Forecast

Advertisements
Track Severe Weather on mobile